createdAt,value
2022-07-30T00:00:46.049Z,22.63
2022-07-30T00:01:48.301Z,22.62
2022-07-30T00:02:50.878Z,22.61
2022-07-30T00:03:53.190Z,22.60
2022-07-30T00:04:55.439Z,22.59
2022-07-30T00:05:57.628Z,22.57
2022-07-30T00:07:00.750Z,22.56
2022-07-30T00:08:03.686Z,22.55
2022-07-30T00:09:05.993Z,22.55
2022-07-30T00:10:08.484Z,22.54
2022-07-30T00:11:12.106Z,22.52
2022-07-30T00:12:14.369Z,22.50
2022-07-30T00:13:16.677Z,22.50
2022-07-30T00:14:18.878Z,22.48
2022-07-30T00:15:21.237Z,22.47
2022-07-30T00:16:29.225Z,22.46
2022-07-30T00:17:31.480Z,22.46
2022-07-30T00:18:34.191Z,22.44
2022-07-30T00:19:37.077Z,22.43
2022-07-30T00:20:43.616Z,22.41
2022-07-30T00:21:49.385Z,22.41
2022-07-30T00:22:52.062Z,22.39
2022-07-30T00:24:01.467Z,22.36
2022-07-30T00:25:05.718Z,22.35
2022-07-30T00:26:07.935Z,22.33
2022-07-30T00:27:10.173Z,22.32
2022-07-30T00:28:15.457Z,22.30
2022-07-30T00:29:17.688Z,22.27
2022-07-30T00:30:20.198Z,22.25
2022-07-30T00:31:22.425Z,22.26
2022-07-30T00:32:24.602Z,22.23
2022-07-30T00:33:27.384Z,22.21
2022-07-30T00:34:29.590Z,22.20
2022-07-30T00:35:31.822Z,22.17
2022-07-30T00:36:34.175Z,22.16
2022-07-30T00:37:42.771Z,22.14
2022-07-30T00:38:47.809Z,22.12
2022-07-30T00:39:50.055Z,22.11
2022-07-30T00:40:52.385Z,22.09
2022-07-30T00:42:05.687Z,22.06
2022-07-30T00:43:07.939Z,22.04
2022-07-30T00:44:15.483Z,22.04
2022-07-30T00:45:20.833Z,22.00
2022-07-30T00:46:29.002Z,21.99
2022-07-30T00:47:31.175Z,21.97
2022-07-30T00:48:36.143Z,21.97
2022-07-30T00:49:42.600Z,21.94
2022-07-30T00:50:46.530Z,21.92
2022-07-30T00:51:52.066Z,21.90
2022-07-30T00:53:01.898Z,21.88
2022-07-30T00:54:04.130Z,21.86
2022-07-30T00:55:09.231Z,21.84
2022-07-30T00:56:14.039Z,21.81
2022-07-30T00:57:16.256Z,21.81
2022-07-30T00:58:18.614Z,21.79
2022-07-30T00:59:21.585Z,21.79
2022-07-30T01:00:25.587Z,21.77
2022-07-30T01:01:27.819Z,21.74
2022-07-30T01:02:32.527Z,21.73
2022-07-30T01:03:34.863Z,21.72
2022-07-30T01:04:37.037Z,21.70
2022-07-30T01:05:39.299Z,21.69
2022-07-30T01:06:41.579Z,21.67
2022-07-30T01:07:44.422Z,21.66
2022-07-30T01:08:49.611Z,21.64
2022-07-30T01:09:51.826Z,21.64
2022-07-30T01:10:54.036Z,21.62
2022-07-30T01:11:56.777Z,21.60
2022-07-30T01:12:59.628Z,21.59
2022-07-30T01:14:06.955Z,21.58
2022-07-30T01:15:11.125Z,21.56
2022-07-30T01:16:14.864Z,21.54
2022-07-30T01:17:17.105Z,21.52
2022-07-30T01:18:23.285Z,21.50
2022-07-30T01:19:48.178Z,21.49
2022-07-30T01:21:07.673Z,21.45
2022-07-30T01:22:16.471Z,21.43
2022-07-30T01:23:31.403Z,21.41
2022-07-30T01:24:43.023Z,21.39
2022-07-30T01:26:10.024Z,21.36
2022-07-30T01:27:19.405Z,21.32
2022-07-30T01:28:27.773Z,21.31
2022-07-30T01:29:32.257Z,21.30
2022-07-30T01:30:38.692Z,21.27
2022-07-30T01:31:43.906Z,21.26
2022-07-30T01:32:47.644Z,21.24
2022-07-30T01:33:50.775Z,21.21
2022-07-30T01:34:57.287Z,21.21
2022-07-30T01:36:00.945Z,21.17
2022-07-30T01:37:05.393Z,21.16
2022-07-30T01:38:11.427Z,21.14
2022-07-30T01:39:15.272Z,21.14
2022-07-30T01:40:18.471Z,21.12
2022-07-30T01:41:21.425Z,21.12
2022-07-30T01:42:26.687Z,21.10
2022-07-30T01:43:30.938Z,21.08
2022-07-30T01:44:34.946Z,21.07
2022-07-30T01:45:42.100Z,21.06
2022-07-30T01:46:48.066Z,21.05
2022-07-30T01:47:53.369Z,21.03
2022-07-30T01:48:58.246Z,21.01
2022-07-30T01:50:02.901Z,21.01
2022-07-30T01:51:08.929Z,21.00
2022-07-30T01:52:12.338Z,20.98
2022-07-30T01:53:20.980Z,20.98
2022-07-30T01:54:25.486Z,20.96
2022-07-30T01:55:34.756Z,20.95
2022-07-30T01:56:37.757Z,20.94
2022-07-30T01:57:46.449Z,20.92
2022-07-30T01:58:51.103Z,20.90
2022-07-30T02:00:03.610Z,20.90
2022-07-30T02:01:18.852Z,20.88
2022-07-30T02:02:21.310Z,20.87
2022-07-30T02:03:26.218Z,20.86
2022-07-30T02:04:28.739Z,20.84
2022-07-30T02:05:37.029Z,20.82
2022-07-30T02:06:45.093Z,20.81
2022-07-30T02:07:57.861Z,20.80
2022-07-30T02:09:10.820Z,20.79
2022-07-30T02:10:23.695Z,20.77
2022-07-30T02:11:44.419Z,20.77
2022-07-30T02:12:53.968Z,20.76
2022-07-30T02:13:57.974Z,20.74
2022-07-30T02:15:26.507Z,20.73
2022-07-30T02:16:34.925Z,20.71
2022-07-30T02:17:50.770Z,20.70
2022-07-30T02:19:04.494Z,20.70
2022-07-30T02:20:13.362Z,20.67
2022-07-30T02:21:19.649Z,20.66
2022-07-30T02:22:25.688Z,20.64
2022-07-30T02:23:29.739Z,20.63
2022-07-30T02:24:36.468Z,20.61
2022-07-30T02:25:50.589Z,20.59
2022-07-30T02:26:58.386Z,20.57
2022-07-30T02:28:09.825Z,20.57
2022-07-30T02:29:13.451Z,20.54
2022-07-30T02:30:16.037Z,20.54
2022-07-30T02:31:25.114Z,20.52
2022-07-30T02:32:35.867Z,20.51
2022-07-30T02:33:42.120Z,20.50
2022-07-30T02:34:56.104Z,20.48
2022-07-30T02:35:59.447Z,20.47
2022-07-30T02:37:03.577Z,20.48
2022-07-30T02:38:10.481Z,20.45
2022-07-30T02:39:14.770Z,20.44
2022-07-30T02:40:21.226Z,20.44
2022-07-30T02:41:29.969Z,20.42
2022-07-30T02:42:33.296Z,20.42
2022-07-30T02:43:37.851Z,20.40
2022-07-30T02:44:43.962Z,20.39
2022-07-30T02:45:48.986Z,20.39
2022-07-30T02:46:56.135Z,20.37
2022-07-30T02:48:34.221Z,20.36
2022-07-30T02:49:40.072Z,20.36
2022-07-30T02:50:46.370Z,20.34
2022-07-30T02:51:49.723Z,20.34
2022-07-30T02:52:53.381Z,20.34
2022-07-30T02:54:02.604Z,20.32
2022-07-30T02:55:06.143Z,20.31
2022-07-30T02:56:09.915Z,20.31
2022-07-30T02:57:15.149Z,20.30
2022-07-30T02:58:22.221Z,20.29
2022-07-30T02:59:26.515Z,20.29
2022-07-30T03:00:30.986Z,20.28
2022-07-30T03:01:35.640Z,20.28
2022-07-30T03:02:45.422Z,20.27
2022-07-30T03:03:51.456Z,20.28
2022-07-30T03:04:56.155Z,20.26
2022-07-30T03:06:00.419Z,20.26
2022-07-30T03:07:08.044Z,20.25
2022-07-30T03:08:11.655Z,20.25
2022-07-30T03:09:16.777Z,20.25
2022-07-30T03:10:19.547Z,20.23
2022-07-30T03:11:23.460Z,20.24
2022-07-30T03:12:28.969Z,20.24
2022-07-30T03:13:31.315Z,20.22
2022-07-30T03:14:33.583Z,20.22
2022-07-30T03:15:39.435Z,20.22
2022-07-30T03:16:47.448Z,20.20
2022-07-30T03:17:55.656Z,20.19
2022-07-30T03:19:05.232Z,20.18
2022-07-30T03:20:18.792Z,20.16
2022-07-30T03:21:26.104Z,20.15
2022-07-30T03:22:32.995Z,20.16
2022-07-30T03:23:37.786Z,20.15
2022-07-30T03:24:43.685Z,20.14
2022-07-30T03:25:51.153Z,20.13
2022-07-30T03:26:58.537Z,20.12
2022-07-30T03:28:04.047Z,20.11
2022-07-30T03:29:11.072Z,20.09
2022-07-30T03:30:14.396Z,20.09
2022-07-30T03:31:19.680Z,20.09
2022-07-30T03:32:26.289Z,20.08
2022-07-30T03:33:38.601Z,20.07
2022-07-30T03:34:41.756Z,20.06
2022-07-30T03:35:44.894Z,20.05
2022-07-30T03:36:47.398Z,20.03
2022-07-30T03:37:49.796Z,20.05
2022-07-30T03:38:53.085Z,20.03
2022-07-30T03:39:58.280Z,20.03
2022-07-30T03:41:02.103Z,20.02
2022-07-30T03:42:06.671Z,20.03
2022-07-30T03:43:32.796Z,20.02
2022-07-30T03:44:34.779Z,20.01
2022-07-30T03:45:41.667Z,20.00
2022-07-30T03:46:45.702Z,20.00
2022-07-30T03:47:48.807Z,20.00
2022-07-30T03:48:52.554Z,19.99
2022-07-30T03:49:55.808Z,19.98
2022-07-30T03:51:01.274Z,19.98
2022-07-30T03:52:04.719Z,19.97
2022-07-30T03:53:09.266Z,19.96
2022-07-30T03:54:27.273Z,19.96
2022-07-30T03:55:50.581Z,19.95
2022-07-30T03:57:19.373Z,19.94
2022-07-30T03:58:23.950Z,19.92
2022-07-30T03:59:28.257Z,19.92
2022-07-30T04:00:30.962Z,19.91
2022-07-30T04:01:33.396Z,19.91
2022-07-30T04:02:45.929Z,19.91
2022-07-30T04:03:54.679Z,19.90
2022-07-30T04:04:57.783Z,19.89
2022-07-30T04:06:00.695Z,19.90
2022-07-30T04:07:05.270Z,19.89
2022-07-30T04:08:07.481Z,19.88
2022-07-30T04:09:11.458Z,19.88
2022-07-30T04:10:15.560Z,19.88
2022-07-30T04:11:41.402Z,19.88
2022-07-30T04:12:46.883Z,19.87
2022-07-30T04:13:50.608Z,19.87
2022-07-30T04:14:58.949Z,19.86
2022-07-30T04:16:41.294Z,19.86
2022-07-30T04:17:38.415Z,19.85
2022-07-30T04:18:44.906Z,19.85
2022-07-30T04:19:51.999Z,19.84
2022-07-30T04:20:55.500Z,19.83
2022-07-30T04:22:00.396Z,19.83
2022-07-30T04:23:03.702Z,19.82
2022-07-30T04:24:06.922Z,19.82
2022-07-30T04:25:10.267Z,19.81
2022-07-30T04:26:26.928Z,19.80
2022-07-30T04:27:33.375Z,19.81
2022-07-30T04:28:36.645Z,19.80
2022-07-30T04:29:39.056Z,19.80
2022-07-30T04:30:41.953Z,19.80
2022-07-30T04:31:44.760Z,19.80
2022-07-30T04:33:08.380Z,19.78
2022-07-30T04:34:24.601Z,19.77
2022-07-30T04:35:51.642Z,19.77
2022-07-30T04:37:01.318Z,19.77
2022-07-30T04:38:05.850Z,19.77
2022-07-30T04:39:08.437Z,19.77
2022-07-30T04:40:10.927Z,19.76
2022-07-30T04:41:14.097Z,19.76
2022-07-30T04:42:41.941Z,19.75
2022-07-30T04:43:46.570Z,19.74
2022-07-30T04:44:50.119Z,19.74
2022-07-30T04:46:03.850Z,19.75
2022-07-30T04:47:06.239Z,19.74
2022-07-30T04:48:13.261Z,19.74
2022-07-30T04:49:34.860Z,19.75
2022-07-30T04:50:45.912Z,19.75
2022-07-30T04:51:54.909Z,19.74
2022-07-30T04:52:57.726Z,19.74
2022-07-30T04:54:06.484Z,19.75
2022-07-30T04:55:11.171Z,19.75
2022-07-30T04:56:15.988Z,19.75
2022-07-30T04:57:20.184Z,19.76
2022-07-30T04:58:27.569Z,19.77
2022-07-30T04:59:32.915Z,19.77
2022-07-30T05:00:41.176Z,19.79
2022-07-30T05:01:52.386Z,19.78
2022-07-30T05:02:56.522Z,19.78
2022-07-30T05:04:00.305Z,19.79
2022-07-30T05:05:03.159Z,19.80
2022-07-30T05:06:06.831Z,19.80
2022-07-30T05:07:14.715Z,19.81
2022-07-30T05:08:17.428Z,19.83
2022-07-30T05:09:19.954Z,19.83
2022-07-30T05:10:22.358Z,19.84
2022-07-30T05:11:24.546Z,19.85
2022-07-30T05:12:39.701Z,19.85
2022-07-30T05:13:46.124Z,19.85
2022-07-30T05:14:49.420Z,19.86
2022-07-30T05:15:55.854Z,19.88
2022-07-30T05:17:00.303Z,19.88
2022-07-30T05:18:07.294Z,19.89
2022-07-30T05:19:13.820Z,19.90
2022-07-30T05:20:16.660Z,19.90
2022-07-30T05:21:34.734Z,19.90
2022-07-30T05:22:37.144Z,19.92
2022-07-30T05:23:49.977Z,19.92
2022-07-30T05:24:59.122Z,19.93
2022-07-30T05:26:01.862Z,19.93
2022-07-30T05:27:13.070Z,19.93
2022-07-30T05:28:15.511Z,19.93
2022-07-30T05:29:21.183Z,19.93
2022-07-30T05:30:29.449Z,19.94
2022-07-30T05:31:34.876Z,19.95
2022-07-30T05:32:38.466Z,19.95
2022-07-30T05:33:42.554Z,19.95
2022-07-30T05:34:50.058Z,19.96
2022-07-30T05:35:53.265Z,19.96
2022-07-30T05:36:55.664Z,19.97
2022-07-30T05:38:00.397Z,19.97
2022-07-30T05:39:09.013Z,19.97
2022-07-30T05:40:24.939Z,19.98
2022-07-30T05:41:39.606Z,19.98
2022-07-30T05:42:53.068Z,19.98
2022-07-30T05:43:55.726Z,19.99
2022-07-30T05:44:58.500Z,19.99
2022-07-30T05:46:03.568Z,19.99
2022-07-30T05:47:05.924Z,19.99
2022-07-30T05:48:08.536Z,19.99
2022-07-30T05:49:11.410Z,19.98
2022-07-30T05:50:14.235Z,19.98
2022-07-30T05:51:17.324Z,19.97
2022-07-30T05:52:19.684Z,19.95
2022-07-30T05:53:22.042Z,19.95
2022-07-30T05:54:50.232Z,19.92
2022-07-30T05:56:11.083Z,19.90
2022-07-30T05:57:28.202Z,19.91
2022-07-30T05:58:30.415Z,19.90
2022-07-30T05:59:32.980Z,19.89
2022-07-30T06:00:43.664Z,19.86
2022-07-30T06:01:45.983Z,19.86
2022-07-30T06:03:03.500Z,19.84
2022-07-30T06:04:25.272Z,19.83
2022-07-30T06:05:33.736Z,19.82
2022-07-30T06:06:37.383Z,19.81
2022-07-30T06:07:39.654Z,19.81
2022-07-30T06:08:44.259Z,19.79
2022-07-30T06:09:46.804Z,19.77
2022-07-30T06:10:49.430Z,19.78
2022-07-30T06:11:59.412Z,19.75
2022-07-30T06:13:01.841Z,19.75
2022-07-30T06:14:03.998Z,19.74
2022-07-30T06:15:06.878Z,19.72
2022-07-30T06:16:12.671Z,19.72
2022-07-30T06:17:15.392Z,19.71
2022-07-30T06:18:34.260Z,19.70
2022-07-30T06:19:41.566Z,19.69
2022-07-30T06:20:43.853Z,19.69
2022-07-30T06:22:07.242Z,19.67
2022-07-30T06:23:14.781Z,19.66
2022-07-30T06:24:37.908Z,19.64
2022-07-30T06:25:45.551Z,19.63
2022-07-30T06:26:48.877Z,19.60
2022-07-30T06:27:54.918Z,19.59
2022-07-30T06:28:57.969Z,19.59
2022-07-30T06:30:09.926Z,19.58
2022-07-30T06:31:12.273Z,19.57
2022-07-30T06:32:14.574Z,19.58
2022-07-30T06:33:16.811Z,19.57
2022-07-30T06:34:19.173Z,19.56
2022-07-30T06:35:21.886Z,19.54
2022-07-30T06:36:25.346Z,19.53
2022-07-30T06:38:05.915Z,19.55
2022-07-30T06:38:59.456Z,19.52
2022-07-30T06:40:33.790Z,19.53
2022-07-30T06:41:50.729Z,19.54
2022-07-30T06:42:52.962Z,19.53
2022-07-30T06:44:16.735Z,19.52
2022-07-30T06:45:39.623Z,19.54
2022-07-30T06:46:55.623Z,19.54
2022-07-30T06:48:00.873Z,19.53
2022-07-30T06:49:14.058Z,19.52
2022-07-30T06:50:18.951Z,19.53
2022-07-30T06:51:21.589Z,19.53
2022-07-30T06:52:24.397Z,19.52
2022-07-30T06:53:28.742Z,19.53
2022-07-30T06:54:54.027Z,19.53
2022-07-30T06:56:03.554Z,19.54
2022-07-30T06:57:23.568Z,19.55
2022-07-30T06:58:26.663Z,19.56
2022-07-30T06:59:57.111Z,19.57
2022-07-30T07:01:10.984Z,19.58
2022-07-30T07:02:14.484Z,19.59
2022-07-30T07:03:39.655Z,19.59
2022-07-30T07:04:42.755Z,19.61
2022-07-30T07:05:47.668Z,19.62
2022-07-30T07:06:49.973Z,19.62
2022-07-30T07:08:00.966Z,19.64
2022-07-30T07:09:08.660Z,19.65
2022-07-30T07:10:18.302Z,19.65
2022-07-30T07:11:20.805Z,19.66
2022-07-30T07:12:26.882Z,19.68
2022-07-30T07:13:29.277Z,19.68
2022-07-30T07:14:34.084Z,19.69
2022-07-30T07:15:37.594Z,19.71
2022-07-30T07:16:43.629Z,19.72
2022-07-30T07:18:12.116Z,19.74
2022-07-30T07:19:59.990Z,19.75
2022-07-30T07:20:38.954Z,19.75
2022-07-30T07:21:43.630Z,19.77
2022-07-30T07:22:45.966Z,19.77
2022-07-30T07:23:51.172Z,19.80
2022-07-30T07:25:12.431Z,19.80
2022-07-30T07:26:19.952Z,19.81
2022-07-30T07:27:22.313Z,19.82
2022-07-30T07:28:33.323Z,19.83
2022-07-30T07:29:36.522Z,19.83
2022-07-30T07:30:38.850Z,19.84
2022-07-30T07:32:05.314Z,19.84
2022-07-30T07:33:05.583Z,19.86
2022-07-30T07:34:08.054Z,19.87
2022-07-30T07:35:10.468Z,19.88
2022-07-30T07:36:15.657Z,19.90
2022-07-30T07:37:26.331Z,19.90
2022-07-30T07:38:28.835Z,19.90
2022-07-30T07:39:35.924Z,19.90
2022-07-30T07:40:40.840Z,19.91
2022-07-30T07:41:48.967Z,19.93
2022-07-30T07:42:54.084Z,19.93
2022-07-30T07:43:56.369Z,19.95
2022-07-30T07:45:07.830Z,19.94
2022-07-30T07:46:33.741Z,19.95
2022-07-30T07:47:51.567Z,19.95
2022-07-30T07:49:21.599Z,19.96
2022-07-30T07:50:27.845Z,19.96
2022-07-30T07:51:47.619Z,19.96
2022-07-30T07:52:52.283Z,19.95
2022-07-30T07:54:19.838Z,19.95
2022-07-30T07:55:20.082Z,19.95
2022-07-30T07:56:22.944Z,19.96
2022-07-30T07:57:25.364Z,19.96
2022-07-30T07:58:28.283Z,19.95
2022-07-30T07:59:40.524Z,19.96
2022-07-30T08:00:48.901Z,19.97
2022-07-30T08:01:53.092Z,19.96
2022-07-30T08:03:28.758Z,19.97
2022-07-30T08:04:32.081Z,19.99
2022-07-30T08:06:02.041Z,19.98
2022-07-30T08:07:34.868Z,19.98
2022-07-30T08:08:56.085Z,19.97
2022-07-30T08:10:16.953Z,19.98
2022-07-30T08:11:41.993Z,19.97
2022-07-30T08:13:07.684Z,19.98
2022-07-30T08:14:48.346Z,19.98
2022-07-30T08:16:20.595Z,19.98
2022-07-30T08:17:46.028Z,19.98
2022-07-30T08:18:52.715Z,19.98
2022-07-30T08:20:17.905Z,19.98
2022-07-30T08:21:20.201Z,19.99
2022-07-30T08:22:22.392Z,19.98
2022-07-30T08:23:24.662Z,19.99
2022-07-30T08:24:27.178Z,20.00
2022-07-30T08:25:29.395Z,20.01
2022-07-30T08:26:32.059Z,20.03
2022-07-30T08:27:34.638Z,20.03
2022-07-30T08:28:37.014Z,20.03
2022-07-30T08:29:42.114Z,20.06
2022-07-30T08:30:44.452Z,20.04
2022-07-30T08:31:46.807Z,20.04
2022-07-30T08:32:49.076Z,20.03
2022-07-30T08:33:51.420Z,20.05
2022-07-30T08:34:53.673Z,20.06
2022-07-30T08:36:02.864Z,20.06
2022-07-30T08:37:06.127Z,20.05
2022-07-30T08:38:09.667Z,20.06
2022-07-30T08:39:11.996Z,20.05
2022-07-30T08:40:14.399Z,20.04
2022-07-30T08:41:28.131Z,20.04
2022-07-30T08:42:33.902Z,20.04
2022-07-30T08:43:40.075Z,20.04
2022-07-30T08:44:45.184Z,20.04
2022-07-30T08:47:31.140Z,20.04
2022-07-30T08:48:47.102Z,20.05
2022-07-30T08:49:54.115Z,20.05
2022-07-30T08:51:01.141Z,20.03
2022-07-30T08:52:12.652Z,20.03
2022-07-30T08:53:18.923Z,20.03
2022-07-30T08:54:21.451Z,20.01
2022-07-30T08:55:23.836Z,20.01
2022-07-30T08:56:26.316Z,20.02
2022-07-30T08:57:32.595Z,20.01
2022-07-30T08:58:35.998Z,20.01
2022-07-30T08:59:59.179Z,20.00
2022-07-30T09:01:04.925Z,20.00
2022-07-30T09:02:10.522Z,19.99
2022-07-30T09:03:27.930Z,20.00
2022-07-30T09:04:33.880Z,19.99
2022-07-30T09:05:36.199Z,19.99
2022-07-30T09:06:38.595Z,20.00
2022-07-30T09:07:41.694Z,20.01
2022-07-30T09:08:49.662Z,20.02
2022-07-30T09:09:52.734Z,20.02
2022-07-30T09:10:55.442Z,20.03
2022-07-30T09:11:59.589Z,20.04
2022-07-30T09:13:04.877Z,20.06
2022-07-30T09:14:12.261Z,20.07
2022-07-30T09:16:33.993Z,20.06
2022-07-30T09:17:59.190Z,20.08
2022-07-30T09:19:14.614Z,20.09
2022-07-30T09:20:20.712Z,20.11
2022-07-30T09:21:28.447Z,20.12
2022-07-30T09:22:53.241Z,20.12
2022-07-30T09:24:14.174Z,20.13
2022-07-30T09:25:45.862Z,20.15
2022-07-30T09:27:12.463Z,20.15
2022-07-30T09:28:32.250Z,20.15
2022-07-30T09:30:07.770Z,20.13
2022-07-30T09:33:09.885Z,20.11
2022-07-30T09:34:50.537Z,20.10
2022-07-30T09:36:16.239Z,20.08
2022-07-30T09:38:04.513Z,20.07
2022-07-30T09:39:34.244Z,20.07
2022-07-30T09:40:57.684Z,20.07
2022-07-30T09:42:21.273Z,20.06
2022-07-30T09:43:27.692Z,20.03
2022-07-30T09:44:38.896Z,20.04
2022-07-30T09:45:57.259Z,20.03
2022-07-30T09:47:01.422Z,20.03
2022-07-30T09:48:21.179Z,20.03
2022-07-30T09:49:27.927Z,20.02
2022-07-30T09:50:34.004Z,20.01
2022-07-30T09:51:54.226Z,20.00
2022-07-30T09:53:12.039Z,19.99
2022-07-30T09:54:19.972Z,20.01
2022-07-30T09:55:41.387Z,19.99
2022-07-30T09:56:53.661Z,20.00
2022-07-30T09:57:59.122Z,20.01
2022-07-30T09:59:18.734Z,20.00
2022-07-30T10:00:24.711Z,20.01
2022-07-30T10:02:01.010Z,20.01
2022-07-30T10:03:33.767Z,20.01
2022-07-30T10:05:14.116Z,20.01
2022-07-30T10:06:17.268Z,20.01
2022-07-30T10:07:25.350Z,20.01
2022-07-30T10:08:55.600Z,20.00
2022-07-30T10:10:00.211Z,20.01
2022-07-30T10:11:08.579Z,20.01
2022-07-30T10:12:14.088Z,20.03
2022-07-30T10:13:21.150Z,20.04
2022-07-30T10:14:30.778Z,20.03
2022-07-30T10:15:37.216Z,20.03
2022-07-30T10:16:41.697Z,20.04
2022-07-30T10:17:44.068Z,20.04
2022-07-30T10:18:57.630Z,20.04
2022-07-30T10:20:21.709Z,20.06
2022-07-30T10:21:43.470Z,20.05
2022-07-30T10:22:57.595Z,20.07
2022-07-30T10:24:12.622Z,20.08
2022-07-30T10:25:35.244Z,20.08
2022-07-30T10:26:59.886Z,20.10
2022-07-30T10:28:54.718Z,20.11
2022-07-30T10:29:59.527Z,20.11
2022-07-30T10:31:46.903Z,20.11
2022-07-30T10:32:30.826Z,20.13
2022-07-30T10:33:34.820Z,20.12
2022-07-30T10:34:42.564Z,20.12
2022-07-30T10:35:45.096Z,20.13
2022-07-30T10:36:57.931Z,20.13
2022-07-30T10:38:01.300Z,20.14
2022-07-30T10:39:06.006Z,20.15
2022-07-30T10:40:17.386Z,20.15
2022-07-30T10:41:44.264Z,20.15
2022-07-30T10:43:16.172Z,20.15
2022-07-30T10:44:51.511Z,20.17
2022-07-30T10:46:10.476Z,20.17
2022-07-30T10:47:34.622Z,20.19
2022-07-30T10:48:39.291Z,20.19
2022-07-30T10:49:43.409Z,20.22
2022-07-30T10:50:54.602Z,20.22
2022-07-30T10:51:58.751Z,20.23
2022-07-30T10:53:03.077Z,20.23
2022-07-30T10:54:05.771Z,20.24
2022-07-30T10:55:15.685Z,20.26
2022-07-30T10:56:26.129Z,20.28
2022-07-30T10:57:32.410Z,20.30
2022-07-30T10:58:59.651Z,20.32
2022-07-30T11:00:05.330Z,20.33
2022-07-30T11:01:18.469Z,20.36
2022-07-30T11:02:23.072Z,20.40
2022-07-30T11:03:40.750Z,20.42
2022-07-30T11:04:47.167Z,20.45
2022-07-30T11:05:52.712Z,20.49
2022-07-30T11:07:24.078Z,20.52
2022-07-30T11:08:31.755Z,20.56
2022-07-30T11:10:04.994Z,20.61
2022-07-30T11:11:28.675Z,20.66
2022-07-30T11:12:53.017Z,20.71
2022-07-30T11:13:57.933Z,20.75
2022-07-30T11:15:06.843Z,20.79
2022-07-30T11:16:21.254Z,20.84
2022-07-30T11:17:24.259Z,20.89
2022-07-30T11:18:28.832Z,20.94
2022-07-30T11:20:04.339Z,20.99
2022-07-30T11:21:21.394Z,21.02
2022-07-30T11:22:31.508Z,21.06
2022-07-30T11:23:39.245Z,21.11
2022-07-30T11:24:46.263Z,21.15
2022-07-30T11:25:51.238Z,21.21
2022-07-30T11:26:54.419Z,21.24
2022-07-30T11:27:57.638Z,21.30
2022-07-30T11:29:02.395Z,21.34
2022-07-30T11:30:26.233Z,21.38
2022-07-30T11:31:56.813Z,21.45
2022-07-30T11:33:04.288Z,21.51
2022-07-30T11:34:32.758Z,21.56
2022-07-30T11:35:35.643Z,21.59
2022-07-30T11:36:58.102Z,21.63
2022-07-30T11:39:10.389Z,21.72
2022-07-30T11:40:13.254Z,21.77
2022-07-30T11:41:21.025Z,21.81
2022-07-30T11:42:34.864Z,21.88
2022-07-30T11:43:37.227Z,21.93
2022-07-30T11:44:39.515Z,21.97
2022-07-30T11:45:41.954Z,22.03
2022-07-30T11:46:50.428Z,22.08
2022-07-30T11:47:56.837Z,22.13
2022-07-30T11:49:10.331Z,22.19
2022-07-30T11:50:32.683Z,22.28
2022-07-30T11:51:41.345Z,22.37
2022-07-30T11:52:46.511Z,22.44
2022-07-30T11:54:02.605Z,22.52
2022-07-30T11:55:05.417Z,22.59
2022-07-30T11:56:09.577Z,22.65
2022-07-30T11:57:16.129Z,22.72
2022-07-30T11:58:35.011Z,22.78
2022-07-30T12:00:02.042Z,22.86
2022-07-30T12:01:09.523Z,22.93
2022-07-30T12:02:15.199Z,22.99
2022-07-30T12:03:19.459Z,23.04
2022-07-30T12:04:21.921Z,23.09
2022-07-30T12:05:26.524Z,23.12
2022-07-30T12:06:28.781Z,23.16
2022-07-30T12:07:32.134Z,23.21
2022-07-30T12:08:42.430Z,23.25
2022-07-30T12:09:44.635Z,23.28
2022-07-30T12:11:02.239Z,23.31
2022-07-30T12:12:23.686Z,23.34
2022-07-30T12:13:44.066Z,23.35
2022-07-30T12:14:48.830Z,23.36
2022-07-30T12:15:51.347Z,23.39
2022-07-30T12:16:54.547Z,23.40
2022-07-30T12:18:11.070Z,23.39
2022-07-30T12:19:19.265Z,23.41
2022-07-30T12:20:21.789Z,23.43
2022-07-30T12:21:24.945Z,23.44
2022-07-30T12:22:27.253Z,23.45
2022-07-30T12:23:31.333Z,23.45
2022-07-30T12:24:36.699Z,23.46
2022-07-30T12:25:47.855Z,23.46
2022-07-30T12:27:07.074Z,23.45
2022-07-30T12:28:13.140Z,23.46
2022-07-30T12:29:17.107Z,23.46
2022-07-30T12:30:21.139Z,23.45
2022-07-30T12:31:23.883Z,23.48
2022-07-30T12:32:28.676Z,23.47
2022-07-30T12:33:33.498Z,23.47
2022-07-30T12:34:35.742Z,23.49
2022-07-30T12:35:46.390Z,23.48
2022-07-30T12:36:49.160Z,23.51
2022-07-30T12:38:07.406Z,23.52
2022-07-30T12:39:20.411Z,23.54
2022-07-30T12:40:22.871Z,23.57
2022-07-30T12:41:48.521Z,23.60
2022-07-30T12:42:52.090Z,23.60
2022-07-30T12:43:55.945Z,23.62
2022-07-30T12:44:58.476Z,23.65
2022-07-30T12:46:00.776Z,23.67
2022-07-30T12:47:07.582Z,23.69
2022-07-30T12:48:11.349Z,23.73
2022-07-30T12:49:22.000Z,23.74
2022-07-30T12:50:26.556Z,23.79
2022-07-30T12:51:35.042Z,23.82
2022-07-30T12:52:40.137Z,23.87
2022-07-30T12:53:42.452Z,23.91
2022-07-30T12:54:44.724Z,23.95
2022-07-30T12:55:47.023Z,23.98
2022-07-30T12:56:59.964Z,24.03
2022-07-30T12:58:08.385Z,24.06
2022-07-30T12:59:22.543Z,24.11
2022-07-30T13:00:52.034Z,24.15
2022-07-30T13:01:54.464Z,24.18
2022-07-30T13:02:57.535Z,24.23
2022-07-30T13:04:06.826Z,24.27
2022-07-30T13:05:12.264Z,24.30
2022-07-30T13:06:25.697Z,24.34
2022-07-30T13:07:32.512Z,24.38
2022-07-30T13:08:56.485Z,24.40
2022-07-30T13:10:12.691Z,24.41
2022-07-30T13:11:15.563Z,24.43
2022-07-30T13:12:17.821Z,24.43
2022-07-30T13:13:20.041Z,24.43
2022-07-30T13:14:23.542Z,24.45
2022-07-30T13:15:26.940Z,24.46
2022-07-30T13:16:37.054Z,24.46
2022-07-30T13:17:39.252Z,24.46
2022-07-30T13:18:41.639Z,24.45
2022-07-30T13:19:43.831Z,24.46
2022-07-30T13:20:46.059Z,24.45
2022-07-30T13:21:49.778Z,24.46
2022-07-30T13:22:52.399Z,24.45
2022-07-30T13:23:54.633Z,24.45
2022-07-30T13:24:56.949Z,24.44
2022-07-30T13:25:59.226Z,24.45
2022-07-30T13:27:01.770Z,24.44
2022-07-30T13:28:04.491Z,24.43
2022-07-30T13:29:06.905Z,24.43
2022-07-30T13:30:09.960Z,24.41
2022-07-30T13:31:12.777Z,24.41
2022-07-30T13:32:15.066Z,24.39
2022-07-30T13:33:17.857Z,24.39
2022-07-30T13:34:20.363Z,24.36
2022-07-30T13:35:22.559Z,24.36
2022-07-30T13:36:24.920Z,24.36
2022-07-30T13:37:37.761Z,24.37
2022-07-30T13:38:40.756Z,24.34
2022-07-30T13:39:42.958Z,24.33
2022-07-30T13:40:45.187Z,24.32
2022-07-30T13:41:47.435Z,24.30
2022-07-30T13:42:49.635Z,24.28
2022-07-30T13:43:54.998Z,24.26
2022-07-30T13:45:00.064Z,24.26
2022-07-30T13:46:04.102Z,24.25
2022-07-30T13:47:08.624Z,24.22
2022-07-30T13:48:11.344Z,24.21
2022-07-30T13:49:13.577Z,24.19
2022-07-30T13:50:18.943Z,24.18
2022-07-30T13:51:21.257Z,24.13
2022-07-30T13:52:23.456Z,24.13
2022-07-30T13:53:25.776Z,24.11
2022-07-30T13:54:29.660Z,24.10
2022-07-30T13:55:32.832Z,24.07
2022-07-30T13:56:40.888Z,24.08
2022-07-30T13:57:44.663Z,24.08
2022-07-30T13:58:51.184Z,24.09
2022-07-30T13:59:53.368Z,24.08
2022-07-30T14:00:58.306Z,24.09
2022-07-30T14:02:01.466Z,24.10
2022-07-30T14:03:07.303Z,24.11
2022-07-30T14:04:11.845Z,24.13
2022-07-30T14:05:14.090Z,24.15
2022-07-30T14:06:17.009Z,24.17
2022-07-30T14:07:19.829Z,24.22
2022-07-30T14:08:25.643Z,24.24
2022-07-30T14:09:28.320Z,24.25
2022-07-30T14:10:30.927Z,24.28
2022-07-30T14:11:33.170Z,24.31
2022-07-30T14:12:36.268Z,24.33
2022-07-30T14:13:38.626Z,24.38
2022-07-30T14:14:40.821Z,24.40
2022-07-30T14:15:43.052Z,24.44
2022-07-30T14:16:47.039Z,24.45
2022-07-30T14:17:56.069Z,24.48
2022-07-30T14:18:58.997Z,24.51
2022-07-30T14:20:01.252Z,24.55
2022-07-30T14:21:03.428Z,24.58
2022-07-30T14:22:08.256Z,24.61
2022-07-30T14:23:10.512Z,24.64
2022-07-30T14:24:13.862Z,24.66
2022-07-30T14:25:16.140Z,24.69
2022-07-30T14:26:19.341Z,24.72
2022-07-30T14:27:21.663Z,24.75
2022-07-30T14:28:24.233Z,24.75
2022-07-30T14:29:27.422Z,24.77
2022-07-30T14:30:32.915Z,24.78
2022-07-30T14:31:35.780Z,24.79
2022-07-30T14:32:39.214Z,24.80
2022-07-30T14:33:41.482Z,24.80
2022-07-30T14:34:49.185Z,24.79
2022-07-30T14:35:51.976Z,24.80
2022-07-30T14:36:54.203Z,24.82
2022-07-30T14:37:56.501Z,24.80
2022-07-30T14:39:02.578Z,24.80
2022-07-30T14:40:11.607Z,24.82
2022-07-30T14:41:13.864Z,24.80
2022-07-30T14:42:16.304Z,24.81
2022-07-30T14:43:19.744Z,24.81
2022-07-30T14:44:22.597Z,24.80
2022-07-30T14:45:25.501Z,24.79